San Luis County Regional Airport
KSBP : now visible

Airfield :











YOU CAN JOIN US ON...

 
LOGIN :

Register | Disclaimer

   EN    FR    IT 

 









Legend :    VFR   Marginal VFR   IFR   Intensive IFR   Very Intensive IFR
Visi :
Ceiling :
>= 8 km
>= 3000ft
5 to 8 km
1000 to 3000 ft
1500m to 5 km
500 to 1000 ft
800 to 1500m
200 to 500 ft
< 800m
< 200 ft
Symbols :   Thunderstorms  Fog  Heavy snow  Heavy precipitations  Wind > 20 kt






- Airport Elevation : 212 ft
- IATA code : SBP


KSBP - San Luis County Regional

CURRENT METAR :
  • 151256Z AUTO 34006KT 10SM CLR 08/04 A3010 RMK AO2 SLP194 T00830039

EXPIRED METARs :
  • 151156Z AUTO 32010KT 10SM CLR 08/04 A3009 RMK AO2 SLP191 T00830044 10083 20044 51010
  • 151056Z AUTO 00000KT 10SM CLR 04/03 A3009 RMK AO2 SLP190 T00440028

TAF KSBP
Valid from the 15 at 12:00 until the 16 at 12:00 UTC


151140Z 1512/1612 VRB03KT P6SM SKC
FM151400 33012KT P6SM SKC
FM152000 32017G25KT P6SM SKC
FM160300 32010KT P6SM SKC
FM160700 34007KT P6SM SKC



MET'MAP, your aeronautical weather chart ! - Copyright ORBIFLY December 2007 - Disclaimer

ORBIFLY MET'MAP TEAM :

Programming & Development : Alexandra Zaïnal
Concept & original design : Baudouin d'Aumeries
Assistance for programming : Marc-Olivier Méhu
Technical & hardware support : Manuel Goepfert

Contact : metmap@orbifly.com




SOURCES & CREDITS :

   NOAA       Earth
Advisory